sensor_id;sensor_type;location;lat;lon;timestamp;P1;durP1;ratioP1;P2;durP2;ratioP2
10677;SDS011;5387;48.722;9.110;2023-09-18T00:00:22;3.92;;;3.00;;
10677;SDS011;5387;48.722;9.110;2023-09-18T00:02:49;4.68;;;3.15;;
10677;SDS011;5387;48.722;9.110;2023-09-18T00:05:17;3.30;;;2.80;;
10677;SDS011;5387;48.722;9.110;2023-09-18T00:07:44;4.65;;;2.88;;
10677;SDS011;5387;48.722;9.110;2023-09-18T00:10:11;5.35;;;2.88;;
10677;SDS011;5387;48.722;9.110;2023-09-18T00:12:39;2.38;;;2.17;;
10677;SDS011;5387;48.722;9.110;2023-09-18T00:15:06;3.80;;;2.83;;
10677;SDS011;5387;48.722;9.110;2023-09-18T00:17:34;7.00;;;2.85;;
10677;SDS011;5387;48.722;9.110;2023-09-18T00:20:01;2.97;;;2.70;;
10677;SDS011;5387;48.722;9.110;2023-09-18T00:22:31;6.95;;;2.92;;
10677;SDS011;5387;48.722;9.110;2023-09-18T00:24:58;4.13;;;2.38;;
10677;SDS011;5387;48.722;9.110;2023-09-18T00:27:24;4.47;;;2.60;;
10677;SDS011;5387;48.722;9.110;2023-09-18T00:29:51;3.20;;;2.90;;
10677;SDS011;5387;48.722;9.110;2023-09-18T00:32:18;2.60;;;2.38;;
10677;SDS011;5387;48.722;9.110;2023-09-18T00:34:45;3.13;;;2.47;;
10677;SDS011;5387;48.722;9.110;2023-09-18T00:37:11;3.33;;;2.90;;
10677;SDS011;5387;48.722;9.110;2023-09-18T00:39:40;4.05;;;3.03;;
10677;SDS011;5387;48.722;9.110;2023-09-18T00:42:08;3.17;;;2.80;;
10677;SDS011;5387;48.722;9.110;2023-09-18T00:44:38;2.83;;;2.63;;
10677;SDS011;5387;48.722;9.110;2023-09-18T00:47:05;2.67;;;2.47;;
10677;SDS011;5387;48.722;9.110;2023-09-18T00:49:33;3.17;;;2.72;;
10677;SDS011;5387;48.722;9.110;2023-09-18T00:52:01;2.78;;;2.58;;
10677;SDS011;5387;48.722;9.110;2023-09-18T00:54:28;2.40;;;2.20;;
10677;SDS011;5387;48.722;9.110;2023-09-18T00:56:57;3.95;;;2.83;;
10677;SDS011;5387;48.722;9.110;2023-09-18T00:59:25;2.50;;;2.30;;
10677;SDS011;5387;48.722;9.110;2023-09-18T01:01:52;3.78;;;2.92;;
10677;SDS011;5387;48.722;9.110;2023-09-18T01:04:19;6.65;;;2.53;;
10677;SDS011;5387;48.722;9.110;2023-09-18T01:06:46;2.53;;;2.33;;
10677;SDS011;5387;48.722;9.110;2023-09-18T01:09:14;3.40;;;2.80;;
10677;SDS011;5387;48.722;9.110;2023-09-18T01:11:45;3.28;;;2.63;;
10677;SDS011;5387;48.722;9.110;2023-09-18T01:14:20;3.08;;;2.42;;
10677;SDS011;5387;48.722;9.110;2023-09-18T01:16:55;5.93;;;2.40;;
10677;SDS011;5387;48.722;9.110;2023-09-18T01:19:36;4.57;;;2.63;;
10677;SDS011;5387;48.722;9.110;2023-09-18T01:22:03;3.85;;;2.22;;
10677;SDS011;5387;48.722;9.110;2023-09-18T01:24:32;2.55;;;2.35;;
10677;SDS011;5387;48.722;9.110;2023-09-18T01:27:00;2.53;;;2.33;;
10677;SDS011;5387;48.722;9.110;2023-09-18T01:29:26;3.20;;;2.50;;
10677;SDS011;5387;48.722;9.110;2023-09-18T01:31:53;3.20;;;2.20;;
10677;SDS011;5387;48.722;9.110;2023-09-18T01:34:20;10.23;;;2.90;;
10677;SDS011;5387;48.722;9.110;2023-09-18T01:36:51;2.53;;;2.33;;
10677;SDS011;5387;48.722;9.110;2023-09-18T01:39:19;2.90;;;2.60;;
10677;SDS011;5387;48.722;9.110;2023-09-18T01:41:48;5.20;;;2.20;;
10677;SDS011;5387;48.722;9.110;2023-09-18T01:44:16;7.15;;;2.42;;
10677;SDS011;5387;48.722;9.110;2023-09-18T01:46:43;3.92;;;2.10;;
10677;SDS011;5387;48.722;9.110;2023-09-18T01:49:10;6.68;;;1.92;;
10677;SDS011;5387;48.722;9.110;2023-09-18T01:51:37;5.97;;;2.17;;
10677;SDS011;5387;48.722;9.110;2023-09-18T01:54:04;3.63;;;1.88;;
10677;SDS011;5387;48.722;9.110;2023-09-18T01:56:31;3.78;;;2.03;;
10677;SDS011;5387;48.722;9.110;2023-09-18T01:58:59;3.00;;;1.73;;
10677;SDS011;5387;48.722;9.110;2023-09-18T02:01:26;7.50;;;2.63;;
10677;SDS011;5387;48.722;9.110;2023-09-18T02:03:54;3.25;;;2.20;;
10677;SDS011;5387;48.722;9.110;2023-09-18T02:06:21;7.30;;;2.78;;
10677;SDS011;5387;48.722;9.110;2023-09-18T02:08:48;2.65;;;1.90;;
10677;SDS011;5387;48.722;9.110;2023-09-18T02:11:15;3.58;;;2.20;;
10677;SDS011;5387;48.722;9.110;2023-09-18T02:13:41;2.22;;;1.80;;
10677;SDS011;5387;48.722;9.110;2023-09-18T02:16:09;5.78;;;2.35;;
10677;SDS011;5387;48.722;9.110;2023-09-18T02:18:36;5.43;;;2.40;;
10677;SDS011;5387;48.722;9.110;2023-09-18T02:21:03;5.88;;;2.28;;
10677;SDS011;5387;48.722;9.110;2023-09-18T02:23:30;5.93;;;3.03;;
10677;SDS011;5387;48.722;9.110;2023-09-18T02:25:57;5.18;;;2.00;;
10677;SDS011;5387;48.722;9.110;2023-09-18T02:28:23;6.68;;;1.80;;
10677;SDS011;5387;48.722;9.110;2023-09-18T02:30:50;9.45;;;2.38;;
10677;SDS011;5387;48.722;9.110;2023-09-18T02:33:19;7.07;;;2.22;;
10677;SDS011;5387;48.722;9.110;2023-09-18T02:35:45;11.57;;;2.58;;
10677;SDS011;5387;48.722;9.110;2023-09-18T02:38:12;7.40;;;2.03;;
10677;SDS011;5387;48.722;9.110;2023-09-18T02:40:39;18.35;;;2.10;;
10677;SDS011;5387;48.722;9.110;2023-09-18T02:43:05;12.07;;;1.92;;
10677;SDS011;5387;48.722;9.110;2023-09-18T02:45:32;11.45;;;2.55;;
10677;SDS011;5387;48.722;9.110;2023-09-18T02:47:59;9.55;;;2.08;;
10677;SDS011;5387;48.722;9.110;2023-09-18T02:50:27;11.55;;;2.55;;
10677;SDS011;5387;48.722;9.110;2023-09-18T02:52:54;7.57;;;2.10;;
10677;SDS011;5387;48.722;9.110;2023-09-18T02:55:20;7.65;;;2.20;;
10677;SDS011;5387;48.722;9.110;2023-09-18T02:57:47;4.03;;;1.88;;
10677;SDS011;5387;48.722;9.110;2023-09-18T03:00:14;6.43;;;2.30;;
10677;SDS011;5387;48.722;9.110;2023-09-18T03:02:42;11.05;;;2.67;;
10677;SDS011;5387;48.722;9.110;2023-09-18T03:05:09;9.00;;;2.78;;
10677;SDS011;5387;48.722;9.110;2023-09-18T03:07:37;8.55;;;2.20;;
10677;SDS011;5387;48.722;9.110;2023-09-18T03:10:04;6.63;;;2.20;;
10677;SDS011;5387;48.722;9.110;2023-09-18T03:12:32;5.90;;;2.20;;
10677;SDS011;5387;48.722;9.110;2023-09-18T03:14:59;12.45;;;2.42;;
10677;SDS011;5387;48.722;9.110;2023-09-18T03:17:25;7.35;;;2.42;;
10677;SDS011;5387;48.722;9.110;2023-09-18T03:19:52;5.03;;;2.00;;
10677;SDS011;5387;48.722;9.110;2023-09-18T03:22:19;8.77;;;2.85;;
10677;SDS011;5387;48.722;9.110;2023-09-18T03:24:47;7.13;;;2.40;;
10677;SDS011;5387;48.722;9.110;2023-09-18T03:27:14;5.88;;;2.35;;
10677;SDS011;5387;48.722;9.110;2023-09-18T03:29:41;6.28;;;2.10;;
10677;SDS011;5387;48.722;9.110;2023-09-18T03:32:08;8.70;;;2.28;;
10677;SDS011;5387;48.722;9.110;2023-09-18T03:34:37;4.10;;;2.30;;
10677;SDS011;5387;48.722;9.110;2023-09-18T03:37:04;3.15;;;1.83;;
10677;SDS011;5387;48.722;9.110;2023-09-18T03:39:31;8.80;;;2.20;;
10677;SDS011;5387;48.722;9.110;2023-09-18T03:41:59;7.15;;;2.30;;
10677;SDS011;5387;48.722;9.110;2023-09-18T03:44:25;5.00;;;1.80;;
10677;SDS011;5387;48.722;9.110;2023-09-18T03:46:52;12.13;;;2.75;;
10677;SDS011;5387;48.722;9.110;2023-09-18T03:49:19;4.47;;;1.95;;
10677;SDS011;5387;48.722;9.110;2023-09-18T03:51:46;5.97;;;1.92;;
10677;SDS011;5387;48.722;9.110;2023-09-18T03:54:13;5.18;;;1.70;;
10677;SDS011;5387;48.722;9.110;2023-09-18T03:56:39;6.93;;;2.25;;
10677;SDS011;5387;48.722;9.110;2023-09-18T03:59:08;6.68;;;2.25;;
10677;SDS011;5387;48.722;9.110;2023-09-18T04:01:34;7.95;;;2.08;;
10677;SDS011;5387;48.722;9.110;2023-09-18T04:04:01;5.60;;;2.00;;
10677;SDS011;5387;48.722;9.110;2023-09-18T04:06:35;7.55;;;2.25;;
10677;SDS011;5387;48.722;9.110;2023-09-18T04:09:03;8.05;;;2.30;;
10677;SDS011;5387;48.722;9.110;2023-09-18T04:11:30;5.07;;;2.10;;
10677;SDS011;5387;48.722;9.110;2023-09-18T04:13:57;9.80;;;2.45;;
10677;SDS011;5387;48.722;9.110;2023-09-18T04:16:25;6.90;;;2.00;;
10677;SDS011;5387;48.722;9.110;2023-09-18T04:18:53;9.32;;;2.20;;
10677;SDS011;5387;48.722;9.110;2023-09-18T04:21:19;8.07;;;2.25;;
10677;SDS011;5387;48.722;9.110;2023-09-18T04:23:47;5.13;;;1.90;;
10677;SDS011;5387;48.722;9.110;2023-09-18T04:26:20;5.75;;;2.13;;
10677;SDS011;5387;48.722;9.110;2023-09-18T04:28:47;7.10;;;2.00;;
10677;SDS011;5387;48.722;9.110;2023-09-18T04:31:14;4.82;;;2.28;;
10677;SDS011;5387;48.722;9.110;2023-09-18T04:33:42;3.47;;;1.85;;
10677;SDS011;5387;48.722;9.110;2023-09-18T04:36:10;6.38;;;2.15;;
10677;SDS011;5387;48.722;9.110;2023-09-18T04:38:37;4.88;;;2.08;;
10677;SDS011;5387;48.722;9.110;2023-09-18T04:41:03;5.82;;;2.05;;
10677;SDS011;5387;48.722;9.110;2023-09-18T04:43:32;5.55;;;2.13;;
10677;SDS011;5387;48.722;9.110;2023-09-18T04:45:59;5.50;;;1.90;;
10677;SDS011;5387;48.722;9.110;2023-09-18T04:48:27;3.42;;;1.92;;
10677;SDS011;5387;48.722;9.110;2023-09-18T04:50:56;5.05;;;1.98;;
10677;SDS011;5387;48.722;9.110;2023-09-18T04:53:23;10.65;;;2.35;;
10677;SDS011;5387;48.722;9.110;2023-09-18T04:55:50;3.03;;;2.03;;
10677;SDS011;5387;48.722;9.110;2023-09-18T04:58:17;5.53;;;2.58;;
10677;SDS011;5387;48.722;9.110;2023-09-18T05:00:44;3.28;;;2.10;;
10677;SDS011;5387;48.722;9.110;2023-09-18T05:03:11;7.93;;;2.30;;
10677;SDS011;5387;48.722;9.110;2023-09-18T05:05:38;5.60;;;2.33;;
10677;SDS011;5387;48.722;9.110;2023-09-18T05:08:07;7.63;;;2.35;;
10677;SDS011;5387;48.722;9.110;2023-09-18T05:10:34;8.43;;;2.60;;
10677;SDS011;5387;48.722;9.110;2023-09-18T05:13:00;6.57;;;2.08;;
10677;SDS011;5387;48.722;9.110;2023-09-18T05:15:27;5.43;;;2.30;;
10677;SDS011;5387;48.722;9.110;2023-09-18T05:17:55;5.68;;;2.55;;
10677;SDS011;5387;48.722;9.110;2023-09-18T05:20:23;8.05;;;2.10;;
10677;SDS011;5387;48.722;9.110;2023-09-18T05:22:51;6.80;;;1.92;;
10677;SDS011;5387;48.722;9.110;2023-09-18T05:25:20;4.15;;;1.90;;
10677;SDS011;5387;48.722;9.110;2023-09-18T05:27:47;5.05;;;2.15;;
10677;SDS011;5387;48.722;9.110;2023-09-18T05:30:21;6.07;;;2.10;;
10677;SDS011;5387;48.722;9.110;2023-09-18T05:32:53;5.30;;;1.98;;
10677;SDS011;5387;48.722;9.110;2023-09-18T05:35:20;5.75;;;1.95;;
10677;SDS011;5387;48.722;9.110;2023-09-18T05:37:48;4.97;;;2.22;;
10677;SDS011;5387;48.722;9.110;2023-09-18T05:40:16;4.85;;;1.98;;
10677;SDS011;5387;48.722;9.110;2023-09-18T05:42:44;4.38;;;1.98;;
10677;SDS011;5387;48.722;9.110;2023-09-18T05:45:12;9.45;;;2.30;;
10677;SDS011;5387;48.722;9.110;2023-09-18T05:47:39;5.28;;;2.00;;
10677;SDS011;5387;48.722;9.110;2023-09-18T05:50:08;7.28;;;2.28;;
10677;SDS011;5387;48.722;9.110;2023-09-18T05:52:39;7.45;;;2.83;;
10677;SDS011;5387;48.722;9.110;2023-09-18T05:55:06;7.75;;;2.28;;
10677;SDS011;5387;48.722;9.110;2023-09-18T05:57:34;10.27;;;2.85;;
10677;SDS011;5387;48.722;9.110;2023-09-18T06:00:02;7.20;;;2.10;;
10677;SDS011;5387;48.722;9.110;2023-09-18T06:02:30;2.65;;;1.52;;
10677;SDS011;5387;48.722;9.110;2023-09-18T06:04:57;5.97;;;2.08;;
10677;SDS011;5387;48.722;9.110;2023-09-18T06:07:25;2.35;;;1.90;;
10677;SDS011;5387;48.722;9.110;2023-09-18T06:09:52;7.70;;;2.33;;
10677;SDS011;5387;48.722;9.110;2023-09-18T06:12:19;3.47;;;2.15;;
10677;SDS011;5387;48.722;9.110;2023-09-18T06:14:46;8.40;;;2.67;;
10677;SDS011;5387;48.722;9.110;2023-09-18T06:17:14;7.82;;;2.15;;
10677;SDS011;5387;48.722;9.110;2023-09-18T06:19:41;9.50;;;2.30;;
10677;SDS011;5387;48.722;9.110;2023-09-18T06:22:09;5.05;;;2.17;;
10677;SDS011;5387;48.722;9.110;2023-09-18T06:24:35;7.63;;;2.47;;
10677;SDS011;5387;48.722;9.110;2023-09-18T06:27:03;4.97;;;2.72;;
10677;SDS011;5387;48.722;9.110;2023-09-18T06:29:30;8.15;;;2.30;;
10677;SDS011;5387;48.722;9.110;2023-09-18T06:31:57;7.80;;;2.53;;
10677;SDS011;5387;48.722;9.110;2023-09-18T06:34:25;9.10;;;2.42;;
10677;SDS011;5387;48.722;9.110;2023-09-18T06:36:53;7.78;;;1.88;;
10677;SDS011;5387;48.722;9.110;2023-09-18T06:39:19;3.22;;;1.65;;
10677;SDS011;5387;48.722;9.110;2023-09-18T06:41:47;3.67;;;2.28;;
10677;SDS011;5387;48.722;9.110;2023-09-18T06:44:14;7.45;;;2.05;;
10677;SDS011;5387;48.722;9.110;2023-09-18T06:46:41;6.18;;;2.03;;
10677;SDS011;5387;48.722;9.110;2023-09-18T06:49:08;3.58;;;2.20;;
10677;SDS011;5387;48.722;9.110;2023-09-18T06:51:36;7.18;;;1.90;;
10677;SDS011;5387;48.722;9.110;2023-09-18T06:54:03;4.00;;;1.80;;
10677;SDS011;5387;48.722;9.110;2023-09-18T06:56:30;4.82;;;2.10;;
10677;SDS011;5387;48.722;9.110;2023-09-18T06:58:56;4.05;;;1.92;;
10677;SDS011;5387;48.722;9.110;2023-09-18T07:01:23;1.50;;;1.40;;
10677;SDS011;5387;48.722;9.110;2023-09-18T07:03:51;1.92;;;1.58;;
10677;SDS011;5387;48.722;9.110;2023-09-18T07:06:17;5.60;;;1.83;;
10677;SDS011;5387;48.722;9.110;2023-09-18T07:08:46;2.65;;;1.65;;
10677;SDS011;5387;48.722;9.110;2023-09-18T07:11:14;6.25;;;1.60;;
10677;SDS011;5387;48.722;9.110;2023-09-18T07:13:42;4.93;;;1.70;;
10677;SDS011;5387;48.722;9.110;2023-09-18T07:16:09;5.85;;;1.70;;
10677;SDS011;5387;48.722;9.110;2023-09-18T07:18:36;3.40;;;1.30;;
10677;SDS011;5387;48.722;9.110;2023-09-18T07:21:03;2.67;;;1.30;;
10677;SDS011;5387;48.722;9.110;2023-09-18T07:23:30;2.28;;;1.35;;
10677;SDS011;5387;48.722;9.110;2023-09-18T07:25:58;5.68;;;1.33;;
10677;SDS011;5387;48.722;9.110;2023-09-18T07:28:26;4.97;;;2.15;;
10677;SDS011;5387;48.722;9.110;2023-09-18T07:30:52;2.95;;;1.45;;
10677;SDS011;5387;48.722;9.110;2023-09-18T07:33:19;3.05;;;1.55;;
10677;SDS011;5387;48.722;9.110;2023-09-18T07:35:46;1.48;;;1.17;;
10677;SDS011;5387;48.722;9.110;2023-09-18T07:38:14;4.47;;;1.20;;
10677;SDS011;5387;48.722;9.110;2023-09-18T07:40:40;6.43;;;1.60;;
10677;SDS011;5387;48.722;9.110;2023-09-18T07:43:09;2.75;;;1.55;;
10677;SDS011;5387;48.722;9.110;2023-09-18T07:45:37;8.05;;;1.40;;
10677;SDS011;5387;48.722;9.110;2023-09-18T07:48:04;2.38;;;1.25;;
10677;SDS011;5387;48.722;9.110;2023-09-18T07:50:32;3.05;;;1.10;;
10677;SDS011;5387;48.722;9.110;2023-09-18T07:52:59;6.63;;;3.97;;
10677;SDS011;5387;48.722;9.110;2023-09-18T07:55:26;2.38;;;1.20;;
10677;SDS011;5387;48.722;9.110;2023-09-18T07:57:53;1.95;;;1.30;;
10677;SDS011;5387;48.722;9.110;2023-09-18T08:00:21;1.52;;;1.30;;
10677;SDS011;5387;48.722;9.110;2023-09-18T08:02:48;4.15;;;1.27;;
10677;SDS011;5387;48.722;9.110;2023-09-18T08:05:17;2.00;;;1.40;;
10677;SDS011;5387;48.722;9.110;2023-09-18T08:07:44;4.53;;;1.33;;
10677;SDS011;5387;48.722;9.110;2023-09-18T08:10:13;1.52;;;1.02;;
10677;SDS011;5387;48.722;9.110;2023-09-18T08:12:39;4.30;;;1.45;;
10677;SDS011;5387;48.722;9.110;2023-09-18T08:15:06;1.88;;;1.10;;
10677;SDS011;5387;48.722;9.110;2023-09-18T08:17:36;3.85;;;1.13;;
10677;SDS011;5387;48.722;9.110;2023-09-18T08:20:03;1.75;;;1.13;;
10677;SDS011;5387;48.722;9.110;2023-09-18T08:22:37;1.98;;;1.33;;
10677;SDS011;5387;48.722;9.110;2023-09-18T08:25:05;1.77;;;1.20;;
10677;SDS011;5387;48.722;9.110;2023-09-18T08:27:33;3.35;;;1.30;;
10677;SDS011;5387;48.722;9.110;2023-09-18T08:30:00;1.40;;;1.30;;
10677;SDS011;5387;48.722;9.110;2023-09-18T08:32:27;2.83;;;0.93;;
10677;SDS011;5387;48.722;9.110;2023-09-18T08:34:56;2.08;;;1.00;;
10677;SDS011;5387;48.722;9.110;2023-09-18T08:37:23;2.30;;;1.30;;
10677;SDS011;5387;48.722;9.110;2023-09-18T08:39:50;2.30;;;1.20;;
10677;SDS011;5387;48.722;9.110;2023-09-18T08:42:17;2.42;;;1.50;;
10677;SDS011;5387;48.722;9.110;2023-09-18T08:44:46;5.60;;;1.35;;
10677;SDS011;5387;48.722;9.110;2023-09-18T08:47:16;4.22;;;1.25;;
10677;SDS011;5387;48.722;9.110;2023-09-18T08:49:44;4.95;;;0.90;;
10677;SDS011;5387;48.722;9.110;2023-09-18T08:52:13;1.00;;;1.00;;
10677;SDS011;5387;48.722;9.110;2023-09-18T08:54:42;1.65;;;1.20;;
10677;SDS011;5387;48.722;9.110;2023-09-18T08:57:09;2.45;;;1.10;;
10677;SDS011;5387;48.722;9.110;2023-09-18T08:59:37;3.22;;;1.58;;
10677;SDS011;5387;48.722;9.110;2023-09-18T09:02:06;2.03;;;1.30;;
10677;SDS011;5387;48.722;9.110;2023-09-18T09:04:36;2.60;;;1.42;;
10677;SDS011;5387;48.722;9.110;2023-09-18T09:07:03;1.42;;;1.10;;
10677;SDS011;5387;48.722;9.110;2023-09-18T09:09:32;1.15;;;1.05;;
10677;SDS011;5387;48.722;9.110;2023-09-18T09:12:00;2.13;;;1.30;;
10677;SDS011;5387;48.722;9.110;2023-09-18T09:14:26;1.95;;;1.23;;
10677;SDS011;5387;48.722;9.110;2023-09-18T09:16:54;1.55;;;1.15;;
10677;SDS011;5387;48.722;9.110;2023-09-18T09:19:28;1.67;;;1.27;;
10677;SDS011;5387;48.722;9.110;2023-09-18T09:21:57;2.30;;;1.20;;
10677;SDS011;5387;48.722;9.110;2023-09-18T09:24:40;2.30;;;1.10;;
10677;SDS011;5387;48.722;9.110;2023-09-18T09:27:07;3.72;;;1.80;;
10677;SDS011;5387;48.722;9.110;2023-09-18T09:29:34;2.83;;;1.27;;
10677;SDS011;5387;48.722;9.110;2023-09-18T09:32:12;2.67;;;1.33;;
10677;SDS011;5387;48.722;9.110;2023-09-18T09:34:40;4.65;;;1.60;;
10677;SDS011;5387;48.722;9.110;2023-09-18T09:37:07;5.07;;;1.50;;
10677;SDS011;5387;48.722;9.110;2023-09-18T09:39:34;3.15;;;1.50;;
10677;SDS011;5387;48.722;9.110;2023-09-18T09:42:14;1.98;;;1.75;;
10677;SDS011;5387;48.722;9.110;2023-09-18T09:44:44;2.58;;;1.58;;
10677;SDS011;5387;48.722;9.110;2023-09-18T09:47:12;4.03;;;1.67;;
10677;SDS011;5387;48.722;9.110;2023-09-18T09:49:44;1.95;;;1.35;;
10677;SDS011;5387;48.722;9.110;2023-09-18T09:52:17;3.47;;;1.67;;
10677;SDS011;5387;48.722;9.110;2023-09-18T09:54:46;1.92;;;1.75;;
10677;SDS011;5387;48.722;9.110;2023-09-18T09:57:14;2.10;;;1.40;;
10677;SDS011;5387;48.722;9.110;2023-09-18T09:59:41;3.55;;;1.48;;
10677;SDS011;5387;48.722;9.110;2023-09-18T10:02:10;3.95;;;1.40;;
10677;SDS011;5387;48.722;9.110;2023-09-18T10:04:37;2.65;;;1.40;;
10677;SDS011;5387;48.722;9.110;2023-09-18T10:07:05;4.28;;;1.30;;
10677;SDS011;5387;48.722;9.110;2023-09-18T10:09:34;1.52;;;1.42;;
10677;SDS011;5387;48.722;9.110;2023-09-18T10:12:03;2.67;;;1.80;;
10677;SDS011;5387;48.722;9.110;2023-09-18T10:14:37;3.30;;;1.80;;
10677;SDS011;5387;48.722;9.110;2023-09-18T10:17:09;1.95;;;1.40;;
10677;SDS011;5387;48.722;9.110;2023-09-18T10:19:45;2.17;;;1.52;;
10677;SDS011;5387;48.722;9.110;2023-09-18T10:22:21;5.93;;;1.70;;
10677;SDS011;5387;48.722;9.110;2023-09-18T10:24:59;1.42;;;1.33;;
10677;SDS011;5387;48.722;9.110;2023-09-18T10:27:35;8.35;;;1.77;;
10677;SDS011;5387;48.722;9.110;2023-09-18T10:30:07;1.50;;;1.40;;
10677;SDS011;5387;48.722;9.110;2023-09-18T10:32:36;7.88;;;1.55;;
10677;SDS011;5387;48.722;9.110;2023-09-18T10:35:05;6.30;;;1.50;;
10677;SDS011;5387;48.722;9.110;2023-09-18T10:37:33;5.55;;;1.40;;
10677;SDS011;5387;48.722;9.110;2023-09-18T10:40:02;5.78;;;1.30;;
10677;SDS011;5387;48.722;9.110;2023-09-18T10:42:33;4.22;;;1.60;;
10677;SDS011;5387;48.722;9.110;2023-09-18T10:45:01;3.83;;;1.58;;
10677;SDS011;5387;48.722;9.110;2023-09-18T10:47:31;2.28;;;1.50;;
10677;SDS011;5387;48.722;9.110;2023-09-18T10:49:59;1.67;;;1.55;;
10677;SDS011;5387;48.722;9.110;2023-09-18T10:52:26;3.63;;;1.20;;
10677;SDS011;5387;48.722;9.110;2023-09-18T10:54:53;4.22;;;1.95;;
10677;SDS011;5387;48.722;9.110;2023-09-18T10:57:20;5.22;;;1.83;;
10677;SDS011;5387;48.722;9.110;2023-09-18T10:59:47;1.83;;;1.50;;
10677;SDS011;5387;48.722;9.110;2023-09-18T11:02:14;5.32;;;1.52;;
10677;SDS011;5387;48.722;9.110;2023-09-18T11:04:44;2.80;;;1.60;;
10677;SDS011;5387;48.722;9.110;2023-09-18T11:07:19;3.20;;;1.67;;
10677;SDS011;5387;48.722;9.110;2023-09-18T11:09:46;2.30;;;1.30;;
10677;SDS011;5387;48.722;9.110;2023-09-18T11:12:14;1.30;;;1.05;;
10677;SDS011;5387;48.722;9.110;2023-09-18T11:14:43;3.75;;;1.42;;
10677;SDS011;5387;48.722;9.110;2023-09-18T11:20:03;1.95;;;1.25;;
10677;SDS011;5387;48.722;9.110;2023-09-18T11:22:34;4.38;;;1.55;;
10677;SDS011;5387;48.722;9.110;2023-09-18T11:27:56;3.10;;;1.25;;
10677;SDS011;5387;48.722;9.110;2023-09-18T11:30:23;2.78;;;1.40;;
10677;SDS011;5387;48.722;9.110;2023-09-18T11:32:51;2.78;;;1.73;;
10677;SDS011;5387;48.722;9.110;2023-09-18T11:35:20;1.38;;;1.27;;
10677;SDS011;5387;48.722;9.110;2023-09-18T11:37:47;6.43;;;1.30;;
10677;SDS011;5387;48.722;9.110;2023-09-18T11:40:30;1.35;;;1.25;;
10677;SDS011;5387;48.722;9.110;2023-09-18T11:43:18;1.85;;;1.20;;
10677;SDS011;5387;48.722;9.110;2023-09-18T11:45:48;3.33;;;1.58;;
10677;SDS011;5387;48.722;9.110;2023-09-18T11:48:16;4.93;;;1.42;;
10677;SDS011;5387;48.722;9.110;2023-09-18T11:50:46;2.20;;;1.58;;
10677;SDS011;5387;48.722;9.110;2023-09-18T11:53:15;2.63;;;1.48;;
10677;SDS011;5387;48.722;9.110;2023-09-18T11:55:43;1.92;;;1.40;;
10677;SDS011;5387;48.722;9.110;2023-09-18T11:58:11;1.02;;;1.02;;
10677;SDS011;5387;48.722;9.110;2023-09-18T12:00:38;1.40;;;1.30;;
10677;SDS011;5387;48.722;9.110;2023-09-18T12:03:14;1.20;;;1.20;;
10677;SDS011;5387;48.722;9.110;2023-09-18T12:05:52;1.40;;;1.30;;
10677;SDS011;5387;48.722;9.110;2023-09-18T12:08:20;2.10;;;1.20;;
10677;SDS011;5387;48.722;9.110;2023-09-18T12:10:48;1.48;;;1.35;;
10677;SDS011;5387;48.722;9.110;2023-09-18T12:13:15;1.23;;;1.13;;
10677;SDS011;5387;48.722;9.110;2023-09-18T12:15:43;2.45;;;1.40;;
10677;SDS011;5387;48.722;9.110;2023-09-18T12:18:09;3.85;;;1.50;;
10677;SDS011;5387;48.722;9.110;2023-09-18T12:20:38;1.17;;;0.98;;
10677;SDS011;5387;48.722;9.110;2023-09-18T12:23:12;7.25;;;1.25;;
10677;SDS011;5387;48.722;9.110;2023-09-18T12:25:39;1.90;;;1.20;;
10677;SDS011;5387;48.722;9.110;2023-09-18T12:28:06;1.52;;;1.30;;
10677;SDS011;5387;48.722;9.110;2023-09-18T12:30:36;1.40;;;1.30;;
10677;SDS011;5387;48.722;9.110;2023-09-18T12:33:03;3.38;;;1.20;;
10677;SDS011;5387;48.722;9.110;2023-09-18T12:35:30;1.77;;;1.10;;
10677;SDS011;5387;48.722;9.110;2023-09-18T12:37:57;2.42;;;1.40;;
10677;SDS011;5387;48.722;9.110;2023-09-18T12:40:27;6.25;;;1.45;;
10677;SDS011;5387;48.722;9.110;2023-09-18T12:42:55;0.77;;;0.70;;
10677;SDS011;5387;48.722;9.110;2023-09-18T12:45:24;3.05;;;1.25;;
10677;SDS011;5387;48.722;9.110;2023-09-18T12:47:53;4.95;;;1.20;;
10677;SDS011;5387;48.722;9.110;2023-09-18T12:50:21;1.65;;;1.23;;
10677;SDS011;5387;48.722;9.110;2023-09-18T12:52:48;1.60;;;1.00;;
10677;SDS011;5387;48.722;9.110;2023-09-18T12:55:21;1.30;;;1.20;;
10677;SDS011;5387;48.722;9.110;2023-09-18T12:57:51;2.08;;;1.35;;
10677;SDS011;5387;48.722;9.110;2023-09-18T13:00:18;1.15;;;0.98;;
10677;SDS011;5387;48.722;9.110;2023-09-18T13:02:48;4.45;;;1.02;;
10677;SDS011;5387;48.722;9.110;2023-09-18T13:05:18;1.73;;;1.25;;
10677;SDS011;5387;48.722;9.110;2023-09-18T13:07:46;1.45;;;1.00;;
10677;SDS011;5387;48.722;9.110;2023-09-18T13:10:13;1.48;;;1.10;;
10677;SDS011;5387;48.722;9.110;2023-09-18T13:12:41;2.30;;;1.10;;
10677;SDS011;5387;48.722;9.110;2023-09-18T13:15:10;1.45;;;1.20;;
10677;SDS011;5387;48.722;9.110;2023-09-18T13:17:41;1.25;;;1.08;;
10677;SDS011;5387;48.722;9.110;2023-09-18T13:20:11;0.95;;;0.95;;
10677;SDS011;5387;48.722;9.110;2023-09-18T13:22:39;1.17;;;1.00;;
10677;SDS011;5387;48.722;9.110;2023-09-18T13:25:08;5.35;;;1.73;;
10677;SDS011;5387;48.722;9.110;2023-09-18T13:27:36;1.10;;;1.10;;
10677;SDS011;5387;48.722;9.110;2023-09-18T13:30:05;1.02;;;1.02;;
10677;SDS011;5387;48.722;9.110;2023-09-18T13:32:35;1.17;;;1.10;;
10677;SDS011;5387;48.722;9.110;2023-09-18T13:35:02;3.38;;;1.10;;
10677;SDS011;5387;48.722;9.110;2023-09-18T13:37:30;2.58;;;1.10;;
10677;SDS011;5387;48.722;9.110;2023-09-18T13:39:57;2.67;;;1.50;;
10677;SDS011;5387;48.722;9.110;2023-09-18T13:42:26;2.92;;;1.42;;
10677;SDS011;5387;48.722;9.110;2023-09-18T13:44:55;1.95;;;1.13;;
10677;SDS011;5387;48.722;9.110;2023-09-18T13:47:22;2.03;;;1.40;;
10677;SDS011;5387;48.722;9.110;2023-09-18T13:49:50;1.02;;;0.93;;
10677;SDS011;5387;48.722;9.110;2023-09-18T13:52:17;2.20;;;1.20;;
10677;SDS011;5387;48.722;9.110;2023-09-18T13:54:44;1.10;;;1.10;;
10677;SDS011;5387;48.722;9.110;2023-09-18T13:57:16;3.22;;;1.20;;
10677;SDS011;5387;48.722;9.110;2023-09-18T13:59:44;0.80;;;0.80;;
10677;SDS011;5387;48.722;9.110;2023-09-18T14:02:12;1.35;;;1.20;;
10677;SDS011;5387;48.722;9.110;2023-09-18T14:04:39;0.90;;;0.90;;
10677;SDS011;5387;48.722;9.110;2023-09-18T14:07:07;1.75;;;0.88;;
10677;SDS011;5387;48.722;9.110;2023-09-18T14:09:34;1.63;;;1.38;;
10677;SDS011;5387;48.722;9.110;2023-09-18T14:12:01;1.48;;;1.30;;
10677;SDS011;5387;48.722;9.110;2023-09-18T14:14:28;1.20;;;1.10;;
10677;SDS011;5387;48.722;9.110;2023-09-18T14:16:57;1.50;;;1.10;;
10677;SDS011;5387;48.722;9.110;2023-09-18T14:19:24;1.00;;;1.00;;
10677;SDS011;5387;48.722;9.110;2023-09-18T14:21:51;1.23;;;1.00;;
10677;SDS011;5387;48.722;9.110;2023-09-18T14:24:19;1.42;;;1.17;;
10677;SDS011;5387;48.722;9.110;2023-09-18T14:26:49;5.05;;;0.90;;
10677;SDS011;5387;48.722;9.110;2023-09-18T14:29:16;1.00;;;1.00;;
10677;SDS011;5387;48.722;9.110;2023-09-18T14:31:43;1.27;;;1.15;;
10677;SDS011;5387;48.722;9.110;2023-09-18T14:34:10;1.13;;;0.98;;
10677;SDS011;5387;48.722;9.110;2023-09-18T14:36:38;1.25;;;1.13;;
10677;SDS011;5387;48.722;9.110;2023-09-18T14:39:05;2.83;;;1.27;;
10677;SDS011;5387;48.722;9.110;2023-09-18T14:41:35;1.38;;;1.10;;
10677;SDS011;5387;48.722;9.110;2023-09-18T14:44:02;2.25;;;1.48;;
10677;SDS011;5387;48.722;9.110;2023-09-18T14:46:29;2.60;;;1.25;;
10677;SDS011;5387;48.722;9.110;2023-09-18T14:48:56;1.13;;;1.13;;
10677;SDS011;5387;48.722;9.110;2023-09-18T14:51:23;2.47;;;1.10;;
10677;SDS011;5387;48.722;9.110;2023-09-18T14:53:50;1.35;;;1.25;;
10677;SDS011;5387;48.722;9.110;2023-09-18T14:56:16;5.05;;;1.35;;
10677;SDS011;5387;48.722;9.110;2023-09-18T14:58:45;1.50;;;1.40;;
10677;SDS011;5387;48.722;9.110;2023-09-18T15:01:11;3.33;;;1.15;;
10677;SDS011;5387;48.722;9.110;2023-09-18T15:03:39;4.35;;;1.40;;
10677;SDS011;5387;48.722;9.110;2023-09-18T15:06:06;1.58;;;1.00;;
10677;SDS011;5387;48.722;9.110;2023-09-18T15:08:33;1.02;;;0.98;;
10677;SDS011;5387;48.722;9.110;2023-09-18T15:11:00;2.08;;;1.10;;